createdAt,value
2018-11-03T00:01:52.647Z,5.10
2018-11-03T00:04:00.475Z,4.67
2018-11-03T00:06:08.206Z,5.00
2018-11-03T00:08:15.936Z,4.70
2018-11-03T00:10:23.736Z,4.63
2018-11-03T00:12:31.485Z,4.37
2018-11-03T00:14:39.184Z,4.57
2018-11-03T00:16:46.958Z,4.87
2018-11-03T00:18:54.648Z,4.33
2018-11-03T00:21:02.469Z,5.00
2018-11-03T00:23:10.353Z,5.10
2018-11-03T00:25:18.298Z,5.50
2018-11-03T00:27:26.013Z,4.83
2018-11-03T00:29:33.738Z,4.73
2018-11-03T00:31:41.485Z,4.60
2018-11-03T00:33:49.229Z,6.03
2018-11-03T00:35:56.998Z,4.97
2018-11-03T00:38:04.909Z,4.77
2018-11-03T00:40:14.768Z,5.23
2018-11-03T00:42:22.478Z,5.50
2018-11-03T00:44:30.165Z,5.00
2018-11-03T00:46:37.845Z,6.00
2018-11-03T00:48:45.558Z,5.70
2018-11-03T00:50:53.289Z,4.73
2018-11-03T00:53:01.116Z,5.20
2018-11-03T00:55:09.732Z,4.73
2018-11-03T00:57:17.473Z,4.67
2018-11-03T00:59:22.439Z,5.00
2018-11-03T01:01:30.141Z,5.20
2018-11-03T01:03:37.842Z,5.00
2018-11-03T01:05:45.528Z,4.70
2018-11-03T01:07:53.332Z,4.47
2018-11-03T01:10:01.064Z,6.00
2018-11-03T01:12:08.805Z,5.13
2018-11-03T01:14:16.543Z,5.07
2018-11-03T01:16:24.247Z,6.33
2018-11-03T01:18:31.959Z,6.20
2018-11-03T01:20:39.871Z,5.87
2018-11-03T01:22:47.569Z,5.50
2018-11-03T01:24:55.355Z,6.33
2018-11-03T01:27:03.279Z,5.33
2018-11-03T01:29:11.084Z,6.30
2018-11-03T01:31:18.814Z,5.93
2018-11-03T01:33:26.524Z,6.27
2018-11-03T01:35:34.264Z,6.17
2018-11-03T01:37:42.011Z,6.60
2018-11-03T01:39:49.723Z,5.63
2018-11-03T01:41:57.514Z,5.37
2018-11-03T01:44:05.260Z,4.73
2018-11-03T01:46:12.985Z,6.07
2018-11-03T01:48:20.686Z,5.43
2018-11-03T01:50:28.379Z,6.20
2018-11-03T01:52:36.530Z,5.80
2018-11-03T01:54:44.404Z,5.90
2018-11-03T01:56:52.203Z,5.67
2018-11-03T01:58:59.996Z,6.57
2018-11-03T02:01:04.898Z,6.93
2018-11-03T02:03:12.613Z,6.90
2018-11-03T02:05:20.323Z,5.33
2018-11-03T02:07:28.225Z,6.33
2018-11-03T02:09:35.905Z,6.23
2018-11-03T02:11:43.651Z,6.57
2018-11-03T02:13:51.402Z,6.27
2018-11-03T02:15:59.179Z,5.40
2018-11-03T02:18:06.894Z,5.53
2018-11-03T02:20:14.842Z,5.60
2018-11-03T02:22:22.529Z,6.40
2018-11-03T02:24:30.247Z,6.33
2018-11-03T02:26:37.935Z,6.60
2018-11-03T02:28:45.738Z,6.00
2018-11-03T02:30:53.452Z,6.20
2018-11-03T02:33:01.175Z,6.63
2018-11-03T02:35:10.432Z,5.80
2018-11-03T02:37:18.351Z,5.63
2018-11-03T02:39:26.018Z,6.70
2018-11-03T02:41:33.725Z,6.10
2018-11-03T02:43:41.432Z,5.50
2018-11-03T02:45:49.110Z,5.63
2018-11-03T02:47:56.824Z,5.90
2018-11-03T02:50:04.530Z,7.07
2018-11-03T02:52:12.332Z,5.30
2018-11-03T02:54:22.361Z,5.57
2018-11-03T02:56:30.221Z,5.20
2018-11-03T02:58:37.911Z,4.83
2018-11-03T03:00:45.605Z,6.20
2018-11-03T03:02:53.897Z,5.17
2018-11-03T03:05:01.662Z,6.10
2018-11-03T03:07:09.331Z,6.17
2018-11-03T03:09:17.031Z,5.10
2018-11-03T03:11:24.853Z,5.40
2018-11-03T03:13:32.531Z,5.70
2018-11-03T03:15:40.496Z,5.57
2018-11-03T03:17:48.180Z,5.47
2018-11-03T03:19:55.902Z,6.20
2018-11-03T03:22:03.570Z,5.73
2018-11-03T03:24:11.320Z,6.17
2018-11-03T03:26:19.012Z,6.17
2018-11-03T03:28:26.728Z,5.73
2018-11-03T03:30:34.455Z,5.30
2018-11-03T03:32:42.451Z,5.70
2018-11-03T03:34:50.245Z,6.10
2018-11-03T03:36:57.940Z,7.00
2018-11-03T03:39:07.680Z,5.50
2018-11-03T03:41:15.422Z,6.27
2018-11-03T03:43:23.137Z,6.13
2018-11-03T03:45:30.829Z,6.80
2018-11-03T03:47:38.604Z,6.30
2018-11-03T03:49:46.618Z,5.63
2018-11-03T03:51:54.450Z,6.63
2018-11-03T03:54:02.157Z,6.37
2018-11-03T03:56:09.922Z,6.73
2018-11-03T03:58:17.604Z,7.30
2018-11-03T04:00:25.333Z,6.17
2018-11-03T04:02:33.172Z,6.50
2018-11-03T04:04:41.327Z,6.57
2018-11-03T04:06:49.005Z,6.10
2018-11-03T04:08:56.742Z,6.50
2018-11-03T04:11:04.618Z,7.00
2018-11-03T04:13:12.399Z,6.33
2018-11-03T04:15:20.091Z,7.00
2018-11-03T04:17:27.810Z,6.00
2018-11-03T04:19:35.504Z,5.57
2018-11-03T04:21:43.187Z,6.67
2018-11-03T04:23:51.062Z,5.90
2018-11-03T04:25:58.775Z,5.50
2018-11-03T04:28:06.487Z,5.87
2018-11-03T04:30:15.122Z,5.37
2018-11-03T04:32:22.791Z,5.20
2018-11-03T04:34:30.508Z,5.63
2018-11-03T04:36:38.153Z,6.37
2018-11-03T04:38:45.829Z,5.73
2018-11-03T04:40:53.519Z,5.50
2018-11-03T04:43:01.229Z,6.00
2018-11-03T04:45:09.888Z,5.63
2018-11-03T04:47:17.904Z,6.33
2018-11-03T04:49:25.603Z,5.70
2018-11-03T04:51:35.052Z,5.77
2018-11-03T04:53:42.750Z,5.80
2018-11-03T04:55:50.441Z,6.13
2018-11-03T04:57:58.282Z,5.80
2018-11-03T05:00:06.218Z,6.30
2018-11-03T05:02:14.124Z,5.60
2018-11-03T05:04:21.922Z,5.77
2018-11-03T05:06:26.985Z,6.37
2018-11-03T05:08:34.693Z,6.23
2018-11-03T05:10:42.393Z,5.90
2018-11-03T05:12:50.069Z,6.10
2018-11-03T05:14:57.798Z,5.50
2018-11-03T05:17:05.565Z,5.80
2018-11-03T05:19:13.306Z,6.27
2018-11-03T05:21:21.226Z,5.23
2018-11-03T05:23:28.935Z,6.60
2018-11-03T05:25:36.602Z,5.93
2018-11-03T05:27:44.425Z,5.60
2018-11-03T05:29:52.105Z,5.80
2018-11-03T05:31:59.811Z,6.30
2018-11-03T05:34:07.678Z,6.03
2018-11-03T05:36:15.367Z,6.70
2018-11-03T05:38:25.394Z,6.23
2018-11-03T05:40:33.360Z,6.30
2018-11-03T05:42:41.040Z,6.00
2018-11-03T05:44:48.759Z,5.60
2018-11-03T05:46:56.485Z,5.90
2018-11-03T05:49:04.229Z,6.00
2018-11-03T05:51:11.938Z,6.50
2018-11-03T05:53:19.617Z,5.87
2018-11-03T05:55:27.349Z,5.30
2018-11-03T05:57:35.153Z,5.50
2018-11-03T05:59:42.821Z,5.70
2018-11-03T06:01:50.544Z,5.43
2018-11-03T06:03:58.280Z,5.50
2018-11-03T06:06:05.963Z,5.37
2018-11-03T06:08:10.854Z,5.10
2018-11-03T06:10:18.529Z,5.23
2018-11-03T06:12:26.337Z,5.00
2018-11-03T06:14:34.072Z,4.93
2018-11-03T06:16:41.776Z,6.47
2018-11-03T06:18:49.544Z,5.67
2018-11-03T06:20:57.335Z,6.47
2018-11-03T06:23:05.065Z,5.63
2018-11-03T06:25:12.715Z,6.40
2018-11-03T06:27:20.454Z,5.80
2018-11-03T06:29:28.153Z,6.00
2018-11-03T06:31:35.884Z,5.50
2018-11-03T06:33:44.713Z,6.07
2018-11-03T06:35:52.471Z,6.20
2018-11-03T06:38:00.166Z,6.37
2018-11-03T06:40:09.010Z,5.00
2018-11-03T06:42:16.807Z,5.30
2018-11-03T06:44:24.517Z,5.97
2018-11-03T06:46:32.296Z,6.37
2018-11-03T06:48:39.979Z,5.73
2018-11-03T06:50:47.676Z,5.87
2018-11-03T06:52:55.482Z,5.50
2018-11-03T06:55:03.191Z,6.03
2018-11-03T06:57:10.264Z,5.60
2018-11-03T06:59:18.576Z,5.27
2018-11-03T07:01:26.262Z,4.50
2018-11-03T07:03:34.095Z,5.67
2018-11-03T07:05:41.928Z,5.27
2018-11-03T07:07:49.663Z,4.93
2018-11-03T07:09:57.957Z,5.70
2018-11-03T07:12:06.202Z,5.37
2018-11-03T07:14:14.248Z,5.10
2018-11-03T07:16:21.997Z,5.63
2018-11-03T07:18:29.723Z,5.47
2018-11-03T07:20:37.699Z,5.47
2018-11-03T07:22:45.477Z,5.33
2018-11-03T07:24:53.258Z,5.80
2018-11-03T07:27:00.981Z,5.60
2018-11-03T07:29:09.404Z,5.43
2018-11-03T07:31:17.088Z,6.27
2018-11-03T07:33:24.787Z,5.90
2018-11-03T07:35:33.554Z,6.07
2018-11-03T07:37:41.288Z,6.20
2018-11-03T07:39:49.112Z,6.20
2018-11-03T07:41:56.812Z,5.67
2018-11-03T07:44:04.949Z,5.27
2018-11-03T07:46:12.711Z,6.07
2018-11-03T07:48:20.589Z,5.07
2018-11-03T07:50:28.240Z,5.80
2018-11-03T07:52:35.962Z,5.73
2018-11-03T07:54:43.742Z,5.70
2018-11-03T07:56:51.762Z,6.07
2018-11-03T07:58:59.659Z,6.70
2018-11-03T08:01:07.683Z,7.10
2018-11-03T08:03:15.416Z,5.90
2018-11-03T08:05:23.287Z,7.70
2018-11-03T08:07:31.074Z,6.00
2018-11-03T08:09:38.816Z,7.07
2018-11-03T08:11:44.069Z,6.03
2018-11-03T08:13:51.887Z,7.07
2018-11-03T08:15:59.837Z,7.67
2018-11-03T08:18:08.227Z,6.73
2018-11-03T08:20:16.072Z,6.53
2018-11-03T08:22:23.933Z,7.17
2018-11-03T08:24:31.669Z,9.37
2018-11-03T08:26:39.652Z,8.53
2018-11-03T08:28:47.435Z,8.60
2018-11-03T08:30:55.182Z,6.87
2018-11-03T08:33:02.932Z,8.30
2018-11-03T08:35:12.690Z,8.33
2018-11-03T08:37:20.374Z,7.33
2018-11-03T08:39:28.164Z,9.37
2018-11-03T08:41:35.877Z,8.73
2018-11-03T08:43:43.639Z,7.53
2018-11-03T08:45:51.346Z,7.63
2018-11-03T08:47:59.151Z,6.87
2018-11-03T08:50:08.654Z,15.30
2018-11-03T08:52:16.344Z,9.67
2018-11-03T08:54:24.154Z,8.07
2018-11-03T08:56:32.325Z,7.87
2018-11-03T08:58:40.051Z,6.67
2018-11-03T09:00:47.858Z,7.73
2018-11-03T09:02:55.597Z,8.30
2018-11-03T09:05:03.368Z,7.17
2018-11-03T09:07:11.295Z,8.40
2018-11-03T09:09:18.899Z,8.63
2018-11-03T09:11:26.638Z,8.43
2018-11-03T09:13:35.387Z,8.10
2018-11-03T09:15:43.128Z,8.33
2018-11-03T09:17:50.940Z,7.50
2018-11-03T09:19:58.726Z,8.23
2018-11-03T09:22:06.523Z,8.43
2018-11-03T09:24:14.290Z,8.13
2018-11-03T09:26:22.008Z,9.03
2018-11-03T09:28:29.830Z,8.30
2018-11-03T09:30:37.521Z,8.30
2018-11-03T09:32:45.675Z,8.50
2018-11-03T09:34:53.610Z,8.13
2018-11-03T09:37:01.450Z,8.27
2018-11-03T09:39:11.939Z,7.50
2018-11-03T09:41:19.578Z,8.00
2018-11-03T09:43:27.387Z,8.50
2018-11-03T09:45:35.085Z,8.00
2018-11-03T09:47:43.463Z,7.70
2018-11-03T09:49:51.517Z,7.67
2018-11-03T09:51:59.227Z,6.83
2018-11-03T09:54:07.203Z,8.20
2018-11-03T09:56:15.384Z,8.07
2018-11-03T09:58:23.175Z,7.80
2018-11-03T10:00:30.926Z,8.13
2018-11-03T10:02:39.133Z,8.50
2018-11-03T10:04:46.906Z,7.00
2018-11-03T10:06:54.721Z,6.13
2018-11-03T10:09:02.586Z,7.00
2018-11-03T10:11:11.041Z,7.67
2018-11-03T10:13:18.745Z,7.47
2018-11-03T10:15:26.975Z,7.00
2018-11-03T10:17:35.143Z,6.90
2018-11-03T10:19:42.996Z,6.87
2018-11-03T10:21:50.759Z,5.73
2018-11-03T10:23:58.521Z,6.47
2018-11-03T10:26:06.855Z,6.37
2018-11-03T10:28:14.967Z,6.10
2018-11-03T10:30:22.692Z,5.30
2018-11-03T10:32:30.447Z,7.10
2018-11-03T10:34:38.194Z,6.17
2018-11-03T10:36:45.913Z,6.07
2018-11-03T10:38:53.800Z,5.60
2018-11-03T10:41:01.545Z,6.20
2018-11-03T10:43:09.506Z,6.27
2018-11-03T10:45:17.693Z,6.33
2018-11-03T10:47:25.449Z,5.90
2018-11-03T10:53:48.594Z,5.93
2018-11-03T10:55:56.416Z,7.10
2018-11-03T10:58:04.135Z,5.90
2018-11-03T11:00:34.063Z,6.23
2018-11-03T11:02:58.938Z,6.00
2018-11-03T11:05:24.229Z,6.83
2018-11-03T11:07:49.150Z,6.73
2018-11-03T11:14:49.766Z,6.50
2018-11-03T11:16:54.941Z,7.70
2018-11-03T11:19:02.718Z,8.30
2018-11-03T11:21:10.486Z,6.87
2018-11-03T11:23:18.366Z,7.63
2018-11-03T11:25:26.167Z,7.90
2018-11-03T11:27:34.250Z,7.53
2018-11-03T11:29:42.108Z,8.63
2018-11-03T11:31:49.822Z,7.00
2018-11-03T11:33:58.193Z,6.27
2018-11-03T11:36:06.320Z,6.37
2018-11-03T11:38:14.729Z,7.07
2018-11-03T11:40:22.462Z,7.70
2018-11-03T11:42:30.531Z,6.83
2018-11-03T11:44:38.773Z,6.40
2018-11-03T11:46:46.863Z,6.83
2018-11-03T11:48:54.703Z,6.80
2018-11-03T11:51:02.908Z,7.20
2018-11-03T11:53:10.509Z,7.37
2018-11-03T11:55:18.701Z,7.53
2018-11-03T11:57:26.445Z,6.93
2018-11-03T11:59:34.225Z,7.93
2018-11-03T12:01:41.942Z,7.23
2018-11-03T12:03:49.662Z,6.70
2018-11-03T12:05:58.156Z,6.87
2018-11-03T12:08:06.079Z,6.43
2018-11-03T12:10:13.918Z,6.40
2018-11-03T12:12:21.668Z,7.27
2018-11-03T12:14:29.465Z,6.33
2018-11-03T12:16:37.263Z,6.30
2018-11-03T12:18:45.678Z,6.57
2018-11-03T12:20:53.426Z,7.13
2018-11-03T12:23:01.172Z,6.20
2018-11-03T12:25:11.004Z,8.10
2018-11-03T12:27:18.732Z,6.67
2018-11-03T12:29:26.561Z,5.87
2018-11-03T12:31:34.293Z,6.10
2018-11-03T12:33:42.129Z,6.77
2018-11-03T12:35:49.892Z,8.07
2018-11-03T12:37:57.750Z,6.40
2018-11-03T12:40:05.806Z,6.03
2018-11-03T12:42:13.566Z,6.20
2018-11-03T12:44:21.951Z,5.60
2018-11-03T12:46:29.682Z,5.80
2018-11-03T12:48:37.568Z,7.27
2018-11-03T12:50:45.282Z,6.20
2018-11-03T12:52:53.043Z,6.73
2018-11-03T12:55:08.976Z,7.90
2018-11-03T12:57:17.014Z,7.70
2018-11-03T12:59:25.391Z,6.33
2018-11-03T13:01:33.069Z,7.40
2018-11-03T13:03:40.931Z,6.33
2018-11-03T13:05:48.663Z,5.67
2018-11-03T13:07:56.670Z,6.23
2018-11-03T13:10:04.485Z,8.60
2018-11-03T13:12:12.222Z,7.07
2018-11-03T13:14:20.464Z,8.20
2018-11-03T13:16:28.579Z,6.70
2018-11-03T13:18:36.358Z,6.47
2018-11-03T13:20:45.040Z,7.40
2018-11-03T13:22:52.859Z,7.70
2018-11-03T13:25:00.598Z,6.50
2018-11-03T13:27:08.339Z,7.37
2018-11-03T13:29:16.122Z,6.60
2018-11-03T13:31:23.868Z,6.80
2018-11-03T13:33:31.823Z,6.57
2018-11-03T13:35:39.480Z,7.70
2018-11-03T13:37:47.597Z,7.30
2018-11-03T13:39:55.489Z,9.63
2018-11-03T13:42:03.436Z,8.83
2018-11-03T13:44:11.204Z,7.23
2018-11-03T13:46:19.110Z,6.70
2018-11-03T13:48:26.881Z,5.70
2018-11-03T13:50:34.919Z,6.27
2018-11-03T13:52:52.175Z,7.17
2018-11-03T13:55:01.192Z,7.40
2018-11-03T13:57:08.995Z,6.70
2018-11-03T13:59:16.866Z,6.00
2018-11-03T14:01:25.090Z,6.33
2018-11-03T14:03:32.849Z,7.20
2018-11-03T14:05:40.588Z,6.70
2018-11-03T14:07:48.344Z,6.23
2018-11-03T14:09:56.116Z,6.17
2018-11-03T14:12:04.181Z,6.00
2018-11-03T14:14:11.960Z,6.30
2018-11-03T14:16:20.454Z,5.40
2018-11-03T14:18:28.201Z,6.50
2018-11-03T14:20:35.983Z,6.13
2018-11-03T14:22:47.787Z,5.80
2018-11-03T14:24:55.552Z,7.10
2018-11-03T14:27:03.298Z,6.43
2018-11-03T14:29:11.191Z,5.63
2018-11-03T14:31:20.459Z,6.40
2018-11-03T14:33:29.934Z,6.17
2018-11-03T14:35:37.861Z,6.43
2018-11-03T14:37:45.621Z,7.20
2018-11-03T14:39:53.432Z,6.07
2018-11-03T14:42:01.213Z,6.83
2018-11-03T14:44:08.965Z,5.90
2018-11-03T14:46:16.791Z,5.30
2018-11-03T14:48:25.211Z,5.60
2018-11-03T14:50:34.081Z,6.40
2018-11-03T14:52:42.995Z,5.70
2018-11-03T14:54:51.252Z,6.00
2018-11-03T14:57:00.348Z,5.70
2018-11-03T14:59:08.309Z,5.70
2018-11-03T15:01:16.032Z,6.73
2018-11-03T15:03:23.835Z,6.00
2018-11-03T15:05:32.045Z,6.00
2018-11-03T15:07:40.140Z,4.97
2018-11-03T15:09:47.841Z,4.60
2018-11-03T15:11:55.655Z,5.47
2018-11-03T15:14:03.507Z,5.77
2018-11-03T15:16:11.102Z,5.00
2018-11-03T15:18:18.944Z,5.33
2018-11-03T15:20:26.710Z,4.73
2018-11-03T15:22:34.878Z,5.23
2018-11-03T15:24:40.704Z,5.20
2018-11-03T15:26:45.662Z,5.57
2018-11-03T15:28:53.400Z,5.40
2018-11-03T15:31:01.119Z,5.83
2018-11-03T15:33:09.052Z,5.00
2018-11-03T15:35:17.134Z,5.83
2018-11-03T15:37:25.006Z,5.40
2018-11-03T15:39:32.803Z,5.97
2018-11-03T15:41:41.360Z,4.73
2018-11-03T15:43:49.043Z,5.50
2018-11-03T15:45:56.915Z,8.80
2018-11-03T15:48:04.682Z,5.90
2018-11-03T15:50:13.307Z,5.70
2018-11-03T15:52:21.149Z,6.10
2018-11-03T15:54:28.918Z,6.03
2018-11-03T15:56:36.646Z,6.47
2018-11-03T15:58:44.395Z,5.87
2018-11-03T16:00:52.535Z,7.87
2018-11-03T16:03:00.321Z,6.97
2018-11-03T16:05:08.445Z,7.67
2018-11-03T16:07:16.199Z,6.97
2018-11-03T16:09:23.951Z,6.50
2018-11-03T16:11:31.703Z,6.43
2018-11-03T16:13:39.591Z,5.43
2018-11-03T16:15:47.297Z,7.60
2018-11-03T16:17:55.356Z,7.50
2018-11-03T16:20:03.548Z,8.10
2018-11-03T16:22:11.562Z,6.33
2018-11-03T16:24:19.310Z,6.70
2018-11-03T16:26:27.088Z,7.87
2018-11-03T16:28:35.097Z,6.07
2018-11-03T16:30:43.020Z,6.93
2018-11-03T16:32:51.034Z,6.40
2018-11-03T16:34:58.779Z,6.00
2018-11-03T16:37:06.976Z,6.70
2018-11-03T16:39:14.770Z,7.00
2018-11-03T16:41:22.632Z,6.30
2018-11-03T16:43:30.378Z,7.13
2018-11-03T16:45:38.240Z,5.93
2018-11-03T16:47:46.087Z,6.13
2018-11-03T16:49:53.822Z,6.13
2018-11-03T16:52:01.579Z,6.80
2018-11-03T16:54:09.411Z,5.60
2018-11-03T16:56:17.641Z,6.63
2018-11-03T16:58:25.479Z,8.33
2018-11-03T17:00:33.205Z,8.73
2018-11-03T17:02:41.509Z,8.27
2018-11-03T17:04:49.303Z,8.50
2018-11-03T17:06:55.100Z,6.63
2018-11-03T17:08:59.906Z,7.93
2018-11-03T17:11:07.785Z,6.70
2018-11-03T17:13:15.913Z,9.13
2018-11-03T17:15:23.754Z,9.03
2018-11-03T17:17:31.888Z,8.50
2018-11-03T17:19:39.675Z,8.50
2018-11-03T17:21:47.458Z,8.17
2018-11-03T17:23:55.279Z,8.40
2018-11-03T17:26:03.025Z,8.60
2018-11-03T17:28:10.831Z,8.90
2018-11-03T17:30:18.975Z,8.60
2018-11-03T17:32:26.822Z,8.70
2018-11-03T17:34:34.654Z,8.87
2018-11-03T17:36:42.491Z,8.77
2018-11-03T17:38:50.366Z,9.33
2018-11-03T17:40:58.187Z,8.67
2018-11-03T17:43:06.166Z,11.37
2018-11-03T17:45:14.151Z,9.20
2018-11-03T17:47:22.304Z,8.63
2018-11-03T17:49:30.209Z,8.80
2018-11-03T17:51:39.362Z,8.80
2018-11-03T17:53:47.630Z,8.30
2018-11-03T17:55:55.618Z,8.27
2018-11-03T17:58:03.435Z,10.47
2018-11-03T18:00:16.641Z,9.80
2018-11-03T18:02:24.370Z,12.30
2018-11-03T18:04:32.519Z,13.10
2018-11-03T18:06:40.282Z,14.60
2018-11-03T18:08:48.021Z,12.47
2018-11-03T18:10:55.835Z,11.67
2018-11-03T18:13:03.648Z,10.67
2018-11-03T18:15:11.834Z,9.10
2018-11-03T18:17:19.564Z,9.30
2018-11-03T18:19:27.413Z,8.77
2018-11-03T18:21:35.157Z,8.93
2018-11-03T18:23:43.500Z,10.00
2018-11-03T18:25:51.275Z,8.80
2018-11-03T18:27:59.023Z,10.10
2018-11-03T18:30:07.641Z,11.23
2018-11-03T18:32:15.488Z,9.97
2018-11-03T18:34:23.266Z,9.30
2018-11-03T18:36:31.064Z,9.23
2018-11-03T18:38:38.850Z,8.50
2018-11-03T18:40:47.727Z,9.67
2018-11-03T18:42:55.633Z,8.83
2018-11-03T18:45:03.503Z,9.50
2018-11-03T18:47:11.374Z,8.33
2018-11-03T18:49:19.219Z,8.60
2018-11-03T18:51:27.075Z,9.80
2018-11-03T18:53:34.893Z,8.23
2018-11-03T18:55:42.733Z,9.97
2018-11-03T18:57:50.506Z,10.23
2018-11-03T18:59:58.317Z,10.87
2018-11-03T19:02:06.866Z,10.40
2018-11-03T19:04:14.666Z,9.20
2018-11-03T19:06:22.428Z,10.10
2018-11-03T19:08:30.255Z,8.67
2018-11-03T19:10:38.061Z,9.00
2018-11-03T19:12:45.874Z,9.10
2018-11-03T19:14:53.636Z,8.97
2018-11-03T19:17:01.462Z,10.10
2018-11-03T19:19:10.460Z,9.60
2018-11-03T19:21:18.276Z,10.07
2018-11-03T19:23:26.051Z,9.37
2018-11-03T19:25:33.911Z,9.57
2018-11-03T19:27:42.029Z,10.00
2018-11-03T19:29:49.896Z,9.93
2018-11-03T19:31:57.632Z,9.40
2018-11-03T19:34:05.522Z,9.53
2018-11-03T19:36:14.014Z,8.50
2018-11-03T19:38:21.920Z,9.70
2018-11-03T19:40:29.718Z,9.27
2018-11-03T19:42:35.755Z,9.50
2018-11-03T19:44:40.744Z,10.03
2018-11-03T19:46:48.928Z,9.10
2018-11-03T19:48:56.744Z,9.63
2018-11-03T19:51:04.671Z,9.57
2018-11-03T19:53:12.434Z,9.37
2018-11-03T19:55:20.265Z,9.40
2018-11-03T19:57:28.610Z,9.57
2018-11-03T19:59:36.358Z,9.37
2018-11-03T20:01:44.604Z,10.60
2018-11-03T20:03:52.527Z,8.97
2018-11-03T20:06:00.338Z,9.60
2018-11-03T20:08:08.224Z,9.90
2018-11-03T20:10:16.344Z,9.00
2018-11-03T20:12:24.150Z,9.97
2018-11-03T20:14:31.954Z,10.00
2018-11-03T20:16:39.795Z,11.00
2018-11-03T20:18:48.175Z,10.23
2018-11-03T20:20:56.049Z,10.60
2018-11-03T20:23:03.921Z,11.40
2018-11-03T20:25:12.661Z,12.00
2018-11-03T20:27:20.486Z,12.37
2018-11-03T20:29:28.333Z,11.30
2018-11-03T20:31:36.436Z,12.33
2018-11-03T20:33:44.148Z,11.80
2018-11-03T20:35:52.626Z,11.70
2018-11-03T20:38:00.691Z,9.30
2018-11-03T20:40:09.871Z,9.77
2018-11-03T20:42:16.339Z,9.30
2018-11-03T20:44:21.226Z,9.77
2018-11-03T20:46:29.071Z,8.97
2018-11-03T20:48:36.898Z,8.37
2018-11-03T20:50:44.639Z,8.57
2018-11-03T20:52:52.833Z,8.23
2018-11-03T20:55:00.862Z,8.90
2018-11-03T20:57:08.668Z,8.00
2018-11-03T20:59:16.527Z,8.67
2018-11-03T21:01:24.311Z,8.43
2018-11-03T21:03:32.385Z,8.50
2018-11-03T21:05:40.248Z,8.40
2018-11-03T21:07:48.275Z,9.10
2018-11-03T21:09:56.713Z,9.43
2018-11-03T21:12:04.490Z,10.13
2018-11-03T21:14:12.292Z,11.50
2018-11-03T21:16:20.141Z,12.10
2018-11-03T21:18:27.949Z,12.07
2018-11-03T21:20:35.657Z,11.50
2018-11-03T21:22:43.473Z,10.63
2018-11-03T21:24:51.271Z,10.87
2018-11-03T21:26:59.034Z,11.03
2018-11-03T21:29:07.883Z,10.10
2018-11-03T21:31:15.753Z,11.97
2018-11-03T21:33:23.638Z,11.10
2018-11-03T21:35:31.298Z,10.50
2018-11-03T21:37:39.101Z,10.73
2018-11-03T21:39:46.913Z,12.37
2018-11-03T21:41:55.630Z,13.17
2018-11-03T21:44:00.512Z,13.30
2018-11-03T21:46:09.887Z,12.43
2018-11-03T21:48:17.526Z,12.20
2018-11-03T21:50:25.357Z,12.17
2018-11-03T21:52:33.138Z,11.93
2018-11-03T21:54:40.891Z,11.40
2018-11-03T21:56:48.735Z,12.40
2018-11-03T21:58:56.430Z,12.20
2018-11-03T22:01:04.264Z,12.20
2018-11-03T22:03:12.397Z,11.83
2018-11-03T22:05:20.442Z,12.13
2018-11-03T22:07:28.209Z,10.60
2018-11-03T22:09:35.976Z,11.57
2018-11-03T22:11:43.780Z,11.13
2018-11-03T22:13:51.542Z,11.17
2018-11-03T22:15:59.353Z,12.47
2018-11-03T22:18:07.315Z,12.27
2018-11-03T22:20:15.076Z,12.30
2018-11-03T22:22:22.875Z,12.17
2018-11-03T22:24:31.447Z,10.70
2018-11-03T22:26:39.204Z,12.57
2018-11-03T22:28:46.970Z,11.03
2018-11-03T22:30:54.704Z,10.97
2018-11-03T22:33:02.409Z,12.30
2018-11-03T22:35:10.184Z,12.07
2018-11-03T22:37:17.936Z,13.30
2018-11-03T22:39:25.714Z,13.90
2018-11-03T22:41:33.994Z,12.53
2018-11-03T22:43:38.910Z,12.87
2018-11-03T22:45:46.751Z,12.80
2018-11-03T22:47:54.512Z,13.50
2018-11-03T22:50:02.289Z,14.27
2018-11-03T22:52:10.163Z,13.20
2018-11-03T22:54:17.945Z,15.70
2018-11-03T22:56:25.706Z,13.63
2018-11-03T22:58:34.166Z,12.53
2018-11-03T23:00:59.979Z,12.57
2018-11-03T23:03:08.245Z,11.50
2018-11-03T23:05:16.033Z,11.27
2018-11-03T23:07:23.778Z,10.70
2018-11-03T23:09:31.605Z,10.87
2018-11-03T23:11:39.345Z,10.80
2018-11-03T23:13:47.446Z,10.33
2018-11-03T23:15:55.203Z,10.63
2018-11-03T23:18:02.970Z,10.10
2018-11-03T23:20:14.799Z,10.87
2018-11-03T23:22:22.560Z,8.90
2018-11-03T23:24:30.258Z,9.47
2018-11-03T23:26:37.986Z,8.97
2018-11-03T23:28:45.711Z,9.73
2018-11-03T23:30:53.803Z,9.20
2018-11-03T23:33:01.569Z,8.73
2018-11-03T23:35:13.871Z,8.70
2018-11-03T23:37:21.660Z,8.97
2018-11-03T23:39:29.543Z,7.93
2018-11-03T23:41:37.548Z,9.53
2018-11-03T23:43:45.268Z,9.10
2018-11-03T23:45:53.007Z,8.90
2018-11-03T23:48:01.012Z,9.33
2018-11-03T23:50:11.450Z,8.70
2018-11-03T23:52:33.701Z,8.50
2018-11-03T23:54:41.480Z,10.27
2018-11-03T23:56:49.185Z,8.80
2018-11-03T23:58:56.984Z,9.27
